sensor_id;sensor_type;location;lat;lon;timestamp;P1;durP1;ratioP1;P2;durP2;ratioP2
74644;SDS011;63163;55.630;37.594;2022-09-30T00:00:09;12.3;;;7.4;;
74644;SDS011;63163;55.630;37.594;2022-09-30T00:01:10;11.2;;;6.9;;
74644;SDS011;63163;55.630;37.594;2022-09-30T00:02:10;11.9;;;7.3;;
74644;SDS011;63163;55.630;37.594;2022-09-30T00:03:11;13.2;;;7.7;;
74644;SDS011;63163;55.630;37.594;2022-09-30T00:04:12;15.0;;;7.8;;
74644;SDS011;63163;55.630;37.594;2022-09-30T00:05:13;13.3;;;8.0;;
74644;SDS011;63163;55.630;37.594;2022-09-30T00:06:14;13.8;;;8.1;;
74644;SDS011;63163;55.630;37.594;2022-09-30T00:07:15;13.5;;;7.6;;
74644;SDS011;63163;55.630;37.594;2022-09-30T00:08:15;13.7;;;8.7;;
74644;SDS011;63163;55.630;37.594;2022-09-30T00:09:16;15.6;;;8.8;;
74644;SDS011;63163;55.630;37.594;2022-09-30T00:10:17;13.2;;;8.1;;
74644;SDS011;63163;55.630;37.594;2022-09-30T00:11:19;14.1;;;8.5;;
74644;SDS011;63163;55.630;37.594;2022-09-30T00:12:19;15.4;;;8.9;;
74644;SDS011;63163;55.630;37.594;2022-09-30T00:13:20;13.6;;;7.6;;
74644;SDS011;63163;55.630;37.594;2022-09-30T00:14:21;13.8;;;7.7;;
74644;SDS011;63163;55.630;37.594;2022-09-30T00:15:22;15.7;;;8.5;;
74644;SDS011;63163;55.630;37.594;2022-09-30T00:16:24;15.8;;;8.5;;
74644;SDS011;63163;55.630;37.594;2022-09-30T00:17:25;14.8;;;8.7;;
74644;SDS011;63163;55.630;37.594;2022-09-30T00:18:27;17.2;;;8.8;;
74644;SDS011;63163;55.630;37.594;2022-09-30T00:19:28;15.3;;;9.1;;
74644;SDS011;63163;55.630;37.594;2022-09-30T00:20:29;15.8;;;8.8;;
74644;SDS011;63163;55.630;37.594;2022-09-30T00:21:30;15.5;;;8.5;;
74644;SDS011;63163;55.630;37.594;2022-09-30T00:22:31;14.9;;;8.6;;
74644;SDS011;63163;55.630;37.594;2022-09-30T00:23:32;14.5;;;8.0;;
74644;SDS011;63163;55.630;37.594;2022-09-30T00:24:33;14.6;;;8.3;;
74644;SDS011;63163;55.630;37.594;2022-09-30T00:25:33;15.9;;;8.2;;
74644;SDS011;63163;55.630;37.594;2022-09-30T00:26:34;12.4;;;7.6;;
74644;SDS011;63163;55.630;37.594;2022-09-30T00:27:34;14.7;;;8.0;;
74644;SDS011;63163;55.630;37.594;2022-09-30T00:28:35;12.8;;;8.4;;
74644;SDS011;63163;55.630;37.594;2022-09-30T00:29:35;13.9;;;8.1;;
74644;SDS011;63163;55.630;37.594;2022-09-30T00:30:36;12.9;;;7.8;;
74644;SDS011;63163;55.630;37.594;2022-09-30T00:31:36;16.9;;;8.7;;
74644;SDS011;63163;55.630;37.594;2022-09-30T00:32:37;12.1;;;8.2;;
74644;SDS011;63163;55.630;37.594;2022-09-30T00:33:38;12.5;;;7.4;;
74644;SDS011;63163;55.630;37.594;2022-09-30T00:34:38;13.1;;;7.7;;
74644;SDS011;63163;55.630;37.594;2022-09-30T00:35:39;11.8;;;7.1;;
74644;SDS011;63163;55.630;37.594;2022-09-30T00:36:40;12.3;;;7.4;;
74644;SDS011;63163;55.630;37.594;2022-09-30T00:37:42;14.7;;;8.1;;
74644;SDS011;63163;55.630;37.594;2022-09-30T00:38:43;13.1;;;8.0;;
74644;SDS011;63163;55.630;37.594;2022-09-30T00:39:43;16.6;;;8.3;;
74644;SDS011;63163;55.630;37.594;2022-09-30T00:40:44;13.7;;;8.0;;
74644;SDS011;63163;55.630;37.594;2022-09-30T00:41:46;12.8;;;7.4;;
74644;SDS011;63163;55.630;37.594;2022-09-30T00:42:47;10.8;;;6.5;;
74644;SDS011;63163;55.630;37.594;2022-09-30T00:43:48;12.3;;;7.1;;
74644;SDS011;63163;55.630;37.594;2022-09-30T00:44:53;12.6;;;7.7;;
74644;SDS011;63163;55.630;37.594;2022-09-30T00:45:55;11.2;;;7.1;;
74644;SDS011;63163;55.630;37.594;2022-09-30T00:46:57;12.7;;;7.4;;
74644;SDS011;63163;55.630;37.594;2022-09-30T00:48:00;15.4;;;8.2;;
74644;SDS011;63163;55.630;37.594;2022-09-30T00:49:06;12.1;;;7.2;;
74644;SDS011;63163;55.630;37.594;2022-09-30T00:50:10;12.3;;;7.3;;
74644;SDS011;63163;55.630;37.594;2022-09-30T00:51:12;11.8;;;7.3;;
74644;SDS011;63163;55.630;37.594;2022-09-30T00:52:13;11.1;;;7.1;;
74644;SDS011;63163;55.630;37.594;2022-09-30T00:53:15;12.5;;;6.8;;
74644;SDS011;63163;55.630;37.594;2022-09-30T00:54:18;11.7;;;7.3;;
74644;SDS011;63163;55.630;37.594;2022-09-30T00:55:23;11.8;;;7.4;;
74644;SDS011;63163;55.630;37.594;2022-09-30T00:56:27;13.6;;;8.0;;
74644;SDS011;63163;55.630;37.594;2022-09-30T00:57:28;11.8;;;7.5;;
74644;SDS011;63163;55.630;37.594;2022-09-30T00:58:30;11.2;;;7.3;;
74644;SDS011;63163;55.630;37.594;2022-09-30T00:59:33;13.1;;;7.2;;
74644;SDS011;63163;55.630;37.594;2022-09-30T01:00:37;11.6;;;6.6;;
74644;SDS011;63163;55.630;37.594;2022-09-30T01:01:38;12.8;;;7.3;;
74644;SDS011;63163;55.630;37.594;2022-09-30T01:02:39;13.3;;;6.8;;
74644;SDS011;63163;55.630;37.594;2022-09-30T01:03:40;12.4;;;8.0;;
74644;SDS011;63163;55.630;37.594;2022-09-30T01:04:42;12.0;;;7.7;;
74644;SDS011;63163;55.630;37.594;2022-09-30T01:05:43;12.7;;;7.8;;
74644;SDS011;63163;55.630;37.594;2022-09-30T01:06:44;13.2;;;7.7;;
74644;SDS011;63163;55.630;37.594;2022-09-30T01:07:45;12.0;;;7.4;;
74644;SDS011;63163;55.630;37.594;2022-09-30T01:08:46;14.7;;;7.7;;
74644;SDS011;63163;55.630;37.594;2022-09-30T01:09:47;15.6;;;8.2;;
74644;SDS011;63163;55.630;37.594;2022-09-30T01:10:48;14.1;;;7.2;;
74644;SDS011;63163;55.630;37.594;2022-09-30T01:11:48;13.8;;;8.0;;
74644;SDS011;63163;55.630;37.594;2022-09-30T01:12:49;12.7;;;7.7;;
74644;SDS011;63163;55.630;37.594;2022-09-30T01:13:50;12.2;;;7.7;;
74644;SDS011;63163;55.630;37.594;2022-09-30T01:14:51;12.8;;;7.3;;
74644;SDS011;63163;55.630;37.594;2022-09-30T01:15:56;15.2;;;8.3;;
74644;SDS011;63163;55.630;37.594;2022-09-30T01:16:59;13.8;;;7.9;;
74644;SDS011;63163;55.630;37.594;2022-09-30T01:18:07;13.0;;;7.4;;
74644;SDS011;63163;55.630;37.594;2022-09-30T01:19:16;12.7;;;7.7;;
74644;SDS011;63163;55.630;37.594;2022-09-30T01:20:28;11.9;;;7.5;;
74644;SDS011;63163;55.630;37.594;2022-09-30T01:22:11;12.3;;;7.5;;
74644;SDS011;63163;55.630;37.594;2022-09-30T01:23:20;14.5;;;8.2;;
74644;SDS011;63163;55.630;37.594;2022-09-30T01:24:36;14.3;;;7.7;;
74644;SDS011;63163;55.630;37.594;2022-09-30T01:25:50;14.2;;;8.0;;
74644;SDS011;63163;55.630;37.594;2022-09-30T01:26:55;15.2;;;8.4;;
74644;SDS011;63163;55.630;37.594;2022-09-30T01:28:12;15.7;;;8.4;;
74644;SDS011;63163;55.630;37.594;2022-09-30T01:29:26;12.0;;;7.3;;
74644;SDS011;63163;55.630;37.594;2022-09-30T01:30:37;13.3;;;7.4;;
74644;SDS011;63163;55.630;37.594;2022-09-30T01:31:42;13.9;;;8.3;;
74644;SDS011;63163;55.630;37.594;2022-09-30T01:32:52;12.1;;;7.7;;
74644;SDS011;63163;55.630;37.594;2022-09-30T01:34:00;12.5;;;7.7;;
74644;SDS011;63163;55.630;37.594;2022-09-30T01:35:06;12.5;;;7.5;;
74644;SDS011;63163;55.630;37.594;2022-09-30T01:36:19;13.1;;;7.8;;
74644;SDS011;63163;55.630;37.594;2022-09-30T01:37:24;14.9;;;8.0;;
74644;SDS011;63163;55.630;37.594;2022-09-30T01:38:30;13.8;;;7.8;;
74644;SDS011;63163;55.630;37.594;2022-09-30T01:39:37;13.6;;;7.8;;
74644;SDS011;63163;55.630;37.594;2022-09-30T01:40:42;13.2;;;8.0;;
74644;SDS011;63163;55.630;37.594;2022-09-30T01:41:44;12.3;;;7.8;;
74644;SDS011;63163;55.630;37.594;2022-09-30T01:42:53;12.8;;;7.8;;
74644;SDS011;63163;55.630;37.594;2022-09-30T01:43:56;14.1;;;7.6;;
74644;SDS011;63163;55.630;37.594;2022-09-30T01:45:04;12.6;;;7.3;;
74644;SDS011;63163;55.630;37.594;2022-09-30T01:46:10;12.6;;;7.7;;
74644;SDS011;63163;55.630;37.594;2022-09-30T01:47:14;16.6;;;7.8;;
74644;SDS011;63163;55.630;37.594;2022-09-30T01:48:17;13.0;;;7.7;;
74644;SDS011;63163;55.630;37.594;2022-09-30T01:49:22;14.7;;;7.9;;
74644;SDS011;63163;55.630;37.594;2022-09-30T01:50:27;13.1;;;7.3;;
74644;SDS011;63163;55.630;37.594;2022-09-30T01:51:31;15.6;;;8.1;;
74644;SDS011;63163;55.630;37.594;2022-09-30T01:52:36;13.1;;;7.5;;
74644;SDS011;63163;55.630;37.594;2022-09-30T01:53:39;15.4;;;8.0;;
74644;SDS011;63163;55.630;37.594;2022-09-30T01:54:41;12.6;;;7.6;;
74644;SDS011;63163;55.630;37.594;2022-09-30T01:55:44;15.1;;;7.9;;
74644;SDS011;63163;55.630;37.594;2022-09-30T01:56:47;15.3;;;8.3;;
74644;SDS011;63163;55.630;37.594;2022-09-30T01:57:50;12.8;;;8.1;;
74644;SDS011;63163;55.630;37.594;2022-09-30T01:58:55;16.1;;;8.7;;
74644;SDS011;63163;55.630;37.594;2022-09-30T01:59:57;13.3;;;7.9;;
74644;SDS011;63163;55.630;37.594;2022-09-30T02:01:00;14.9;;;8.6;;
74644;SDS011;63163;55.630;37.594;2022-09-30T02:02:05;12.5;;;7.7;;
74644;SDS011;63163;55.630;37.594;2022-09-30T02:03:09;14.3;;;7.6;;
74644;SDS011;63163;55.630;37.594;2022-09-30T02:04:13;14.0;;;8.3;;
74644;SDS011;63163;55.630;37.594;2022-09-30T02:05:17;15.6;;;8.0;;
74644;SDS011;63163;55.630;37.594;2022-09-30T02:06:20;15.0;;;8.5;;
74644;SDS011;63163;55.630;37.594;2022-09-30T02:07:22;15.5;;;7.7;;
74644;SDS011;63163;55.630;37.594;2022-09-30T02:08:25;14.4;;;7.7;;
74644;SDS011;63163;55.630;37.594;2022-09-30T02:09:29;15.7;;;7.7;;
74644;SDS011;63163;55.630;37.594;2022-09-30T02:10:32;14.1;;;7.8;;
74644;SDS011;63163;55.630;37.594;2022-09-30T02:11:34;14.0;;;8.4;;
74644;SDS011;63163;55.630;37.594;2022-09-30T02:12:37;17.3;;;8.5;;
74644;SDS011;63163;55.630;37.594;2022-09-30T02:13:42;14.5;;;8.4;;
74644;SDS011;63163;55.630;37.594;2022-09-30T02:14:44;14.7;;;8.4;;
74644;SDS011;63163;55.630;37.594;2022-09-30T02:15:47;13.8;;;7.9;;
74644;SDS011;63163;55.630;37.594;2022-09-30T02:16:53;14.0;;;7.9;;
74644;SDS011;63163;55.630;37.594;2022-09-30T02:17:57;13.0;;;7.8;;
74644;SDS011;63163;55.630;37.594;2022-09-30T02:19:00;11.9;;;7.3;;
74644;SDS011;63163;55.630;37.594;2022-09-30T02:20:03;14.2;;;7.6;;
74644;SDS011;63163;55.630;37.594;2022-09-30T02:21:05;14.8;;;8.0;;
74644;SDS011;63163;55.630;37.594;2022-09-30T02:22:06;14.0;;;7.2;;
74644;SDS011;63163;55.630;37.594;2022-09-30T02:23:10;11.7;;;6.7;;
74644;SDS011;63163;55.630;37.594;2022-09-30T02:24:13;13.7;;;7.4;;
74644;SDS011;63163;55.630;37.594;2022-09-30T02:25:16;12.3;;;6.8;;
74644;SDS011;63163;55.630;37.594;2022-09-30T02:26:20;11.2;;;6.8;;
74644;SDS011;63163;55.630;37.594;2022-09-30T02:27:22;10.2;;;6.1;;
74644;SDS011;63163;55.630;37.594;2022-09-30T02:28:26;11.6;;;7.1;;
74644;SDS011;63163;55.630;37.594;2022-09-30T02:29:29;12.0;;;6.5;;
74644;SDS011;63163;55.630;37.594;2022-09-30T02:30:31;12.1;;;6.8;;
74644;SDS011;63163;55.630;37.594;2022-09-30T02:31:33;14.6;;;6.8;;
74644;SDS011;63163;55.630;37.594;2022-09-30T02:32:37;12.0;;;6.9;;
74644;SDS011;63163;55.630;37.594;2022-09-30T02:33:39;11.6;;;6.5;;
74644;SDS011;63163;55.630;37.594;2022-09-30T02:34:42;11.0;;;6.8;;
74644;SDS011;63163;55.630;37.594;2022-09-30T02:35:46;12.3;;;7.5;;
74644;SDS011;63163;55.630;37.594;2022-09-30T02:36:49;12.3;;;8.1;;
74644;SDS011;63163;55.630;37.594;2022-09-30T02:37:51;14.1;;;7.4;;
74644;SDS011;63163;55.630;37.594;2022-09-30T02:38:54;13.4;;;7.5;;
74644;SDS011;63163;55.630;37.594;2022-09-30T02:39:58;13.5;;;7.8;;
74644;SDS011;63163;55.630;37.594;2022-09-30T02:41:02;13.4;;;8.0;;
74644;SDS011;63163;55.630;37.594;2022-09-30T02:42:07;13.4;;;8.2;;
74644;SDS011;63163;55.630;37.594;2022-09-30T02:43:09;14.0;;;8.2;;
74644;SDS011;63163;55.630;37.594;2022-09-30T02:44:10;15.3;;;8.4;;
74644;SDS011;63163;55.630;37.594;2022-09-30T02:45:12;12.3;;;7.8;;
74644;SDS011;63163;55.630;37.594;2022-09-30T02:46:17;11.4;;;7.1;;
74644;SDS011;63163;55.630;37.594;2022-09-30T02:47:22;12.3;;;7.5;;
74644;SDS011;63163;55.630;37.594;2022-09-30T02:48:25;12.7;;;7.8;;
74644;SDS011;63163;55.630;37.594;2022-09-30T02:49:29;13.2;;;7.5;;
74644;SDS011;63163;55.630;37.594;2022-09-30T02:50:31;13.5;;;7.7;;
74644;SDS011;63163;55.630;37.594;2022-09-30T02:51:36;11.6;;;7.2;;
74644;SDS011;63163;55.630;37.594;2022-09-30T02:52:41;13.6;;;7.8;;
74644;SDS011;63163;55.630;37.594;2022-09-30T02:53:44;13.8;;;7.5;;
74644;SDS011;63163;55.630;37.594;2022-09-30T02:54:51;11.9;;;7.8;;
74644;SDS011;63163;55.630;37.594;2022-09-30T02:56:06;13.4;;;6.9;;
74644;SDS011;63163;55.630;37.594;2022-09-30T02:57:11;13.9;;;7.7;;
74644;SDS011;63163;55.630;37.594;2022-09-30T02:58:18;16.6;;;7.5;;
74644;SDS011;63163;55.630;37.594;2022-09-30T02:59:20;14.2;;;7.8;;
74644;SDS011;63163;55.630;37.594;2022-09-30T03:00:21;14.4;;;7.1;;
74644;SDS011;63163;55.630;37.594;2022-09-30T03:01:23;14.0;;;7.9;;
74644;SDS011;63163;55.630;37.594;2022-09-30T03:02:24;16.0;;;8.3;;
74644;SDS011;63163;55.630;37.594;2022-09-30T03:03:26;11.9;;;8.0;;
74644;SDS011;63163;55.630;37.594;2022-09-30T03:04:28;13.3;;;7.4;;
74644;SDS011;63163;55.630;37.594;2022-09-30T03:05:29;12.0;;;7.3;;
74644;SDS011;63163;55.630;37.594;2022-09-30T03:06:30;13.3;;;7.7;;
74644;SDS011;63163;55.630;37.594;2022-09-30T03:07:32;12.5;;;7.5;;
74644;SDS011;63163;55.630;37.594;2022-09-30T03:08:33;14.0;;;7.7;;
74644;SDS011;63163;55.630;37.594;2022-09-30T03:09:34;14.3;;;7.5;;
74644;SDS011;63163;55.630;37.594;2022-09-30T03:10:35;11.8;;;7.2;;
74644;SDS011;63163;55.630;37.594;2022-09-30T03:11:35;12.6;;;7.5;;
74644;SDS011;63163;55.630;37.594;2022-09-30T03:12:38;14.9;;;7.9;;
74644;SDS011;63163;55.630;37.594;2022-09-30T03:13:49;12.2;;;7.5;;
74644;SDS011;63163;55.630;37.594;2022-09-30T03:14:59;13.5;;;7.3;;
74644;SDS011;63163;55.630;37.594;2022-09-30T03:16:06;12.1;;;7.2;;
74644;SDS011;63163;55.630;37.594;2022-09-30T03:17:14;13.8;;;6.9;;
74644;SDS011;63163;55.630;37.594;2022-09-30T03:18:23;13.7;;;7.8;;
74644;SDS011;63163;55.630;37.594;2022-09-30T03:19:35;15.3;;;7.2;;
74644;SDS011;63163;55.630;37.594;2022-09-30T03:20:44;12.5;;;7.0;;
74644;SDS011;63163;55.630;37.594;2022-09-30T03:21:49;11.0;;;6.5;;
74644;SDS011;63163;55.630;37.594;2022-09-30T03:23:00;11.5;;;6.8;;
74644;SDS011;63163;55.630;37.594;2022-09-30T03:24:08;12.3;;;6.9;;
74644;SDS011;63163;55.630;37.594;2022-09-30T03:25:14;12.4;;;7.1;;
74644;SDS011;63163;55.630;37.594;2022-09-30T03:26:21;11.5;;;7.0;;
74644;SDS011;63163;55.630;37.594;2022-09-30T03:27:25;10.5;;;6.1;;
74644;SDS011;63163;55.630;37.594;2022-09-30T03:28:32;12.5;;;7.3;;
74644;SDS011;63163;55.630;37.594;2022-09-30T03:29:36;11.6;;;6.9;;
74644;SDS011;63163;55.630;37.594;2022-09-30T03:30:42;11.1;;;6.8;;
74644;SDS011;63163;55.630;37.594;2022-09-30T03:31:51;12.1;;;7.2;;
74644;SDS011;63163;55.630;37.594;2022-09-30T03:32:58;11.0;;;7.3;;
74644;SDS011;63163;55.630;37.594;2022-09-30T03:34:02;13.5;;;7.2;;
74644;SDS011;63163;55.630;37.594;2022-09-30T03:35:08;11.5;;;7.2;;
74644;SDS011;63163;55.630;37.594;2022-09-30T03:36:14;12.0;;;6.9;;
74644;SDS011;63163;55.630;37.594;2022-09-30T03:37:18;13.8;;;7.7;;
74644;SDS011;63163;55.630;37.594;2022-09-30T03:38:24;11.9;;;6.7;;
74644;SDS011;63163;55.630;37.594;2022-09-30T03:39:31;10.3;;;6.0;;
74644;SDS011;63163;55.630;37.594;2022-09-30T03:40:36;14.7;;;7.5;;
74644;SDS011;63163;55.630;37.594;2022-09-30T03:41:39;14.9;;;7.9;;
74644;SDS011;63163;55.630;37.594;2022-09-30T03:42:42;11.3;;;6.7;;
74644;SDS011;63163;55.630;37.594;2022-09-30T03:43:45;10.2;;;6.1;;
74644;SDS011;63163;55.630;37.594;2022-09-30T03:44:48;13.0;;;7.4;;
74644;SDS011;63163;55.630;37.594;2022-09-30T03:45:55;12.8;;;6.6;;
74644;SDS011;63163;55.630;37.594;2022-09-30T03:46:59;12.8;;;6.8;;
74644;SDS011;63163;55.630;37.594;2022-09-30T03:48:02;10.3;;;6.5;;
74644;SDS011;63163;55.630;37.594;2022-09-30T03:49:06;11.7;;;6.7;;
74644;SDS011;63163;55.630;37.594;2022-09-30T03:50:07;11.2;;;6.6;;
74644;SDS011;63163;55.630;37.594;2022-09-30T03:51:09;12.2;;;7.5;;
74644;SDS011;63163;55.630;37.594;2022-09-30T03:52:10;10.8;;;6.7;;
74644;SDS011;63163;55.630;37.594;2022-09-30T03:53:12;12.3;;;7.0;;
74644;SDS011;63163;55.630;37.594;2022-09-30T03:54:13;10.5;;;6.6;;
74644;SDS011;63163;55.630;37.594;2022-09-30T03:55:14;13.5;;;7.1;;
74644;SDS011;63163;55.630;37.594;2022-09-30T03:56:22;13.1;;;6.2;;
74644;SDS011;63163;55.630;37.594;2022-09-30T03:57:24;13.4;;;7.1;;
74644;SDS011;63163;55.630;37.594;2022-09-30T03:58:25;14.1;;;6.8;;
74644;SDS011;63163;55.630;37.594;2022-09-30T03:59:26;13.0;;;7.1;;
74644;SDS011;63163;55.630;37.594;2022-09-30T04:00:28;15.0;;;7.4;;
74644;SDS011;63163;55.630;37.594;2022-09-30T04:01:29;9.0;;;6.0;;
74644;SDS011;63163;55.630;37.594;2022-09-30T04:02:30;12.1;;;6.4;;
74644;SDS011;63163;55.630;37.594;2022-09-30T04:03:30;10.3;;;6.4;;
74644;SDS011;63163;55.630;37.594;2022-09-30T04:04:31;12.9;;;6.9;;
74644;SDS011;63163;55.630;37.594;2022-09-30T04:05:32;13.1;;;6.9;;
74644;SDS011;63163;55.630;37.594;2022-09-30T04:06:32;11.8;;;6.2;;
74644;SDS011;63163;55.630;37.594;2022-09-30T04:07:33;13.0;;;6.9;;
74644;SDS011;63163;55.630;37.594;2022-09-30T04:08:34;12.0;;;6.5;;
74644;SDS011;63163;55.630;37.594;2022-09-30T04:09:35;11.3;;;6.4;;
74644;SDS011;63163;55.630;37.594;2022-09-30T04:10:36;14.7;;;7.2;;
74644;SDS011;63163;55.630;37.594;2022-09-30T04:11:38;14.3;;;7.0;;
74644;SDS011;63163;55.630;37.594;2022-09-30T04:12:39;13.3;;;7.3;;
74644;SDS011;63163;55.630;37.594;2022-09-30T04:13:40;12.9;;;7.6;;
74644;SDS011;63163;55.630;37.594;2022-09-30T04:14:40;12.3;;;7.0;;
74644;SDS011;63163;55.630;37.594;2022-09-30T04:15:41;13.8;;;6.9;;
74644;SDS011;63163;55.630;37.594;2022-09-30T04:16:42;11.2;;;7.1;;
74644;SDS011;63163;55.630;37.594;2022-09-30T04:17:42;11.7;;;6.8;;
74644;SDS011;63163;55.630;37.594;2022-09-30T04:18:43;13.2;;;7.1;;
74644;SDS011;63163;55.630;37.594;2022-09-30T04:19:43;13.7;;;6.8;;
74644;SDS011;63163;55.630;37.594;2022-09-30T04:20:44;11.7;;;7.1;;
74644;SDS011;63163;55.630;37.594;2022-09-30T04:21:45;12.0;;;6.5;;
74644;SDS011;63163;55.630;37.594;2022-09-30T04:22:45;10.4;;;6.7;;
74644;SDS011;63163;55.630;37.594;2022-09-30T04:23:46;13.6;;;6.7;;
74644;SDS011;63163;55.630;37.594;2022-09-30T04:24:47;12.9;;;6.9;;
74644;SDS011;63163;55.630;37.594;2022-09-30T04:25:50;14.1;;;7.4;;
74644;SDS011;63163;55.630;37.594;2022-09-30T04:26:51;10.7;;;6.8;;
74644;SDS011;63163;55.630;37.594;2022-09-30T04:27:52;13.5;;;7.0;;
74644;SDS011;63163;55.630;37.594;2022-09-30T04:28:53;12.8;;;6.7;;
74644;SDS011;63163;55.630;37.594;2022-09-30T04:29:57;11.4;;;6.9;;
74644;SDS011;63163;55.630;37.594;2022-09-30T04:30:58;13.0;;;7.2;;
74644;SDS011;63163;55.630;37.594;2022-09-30T04:31:59;11.1;;;6.7;;
74644;SDS011;63163;55.630;37.594;2022-09-30T04:32:59;10.6;;;6.3;;
74644;SDS011;63163;55.630;37.594;2022-09-30T04:34:00;12.2;;;6.5;;
74644;SDS011;63163;55.630;37.594;2022-09-30T04:35:01;12.4;;;6.4;;
74644;SDS011;63163;55.630;37.594;2022-09-30T04:36:01;10.3;;;6.3;;
74644;SDS011;63163;55.630;37.594;2022-09-30T04:37:02;12.5;;;6.8;;
74644;SDS011;63163;55.630;37.594;2022-09-30T04:38:02;13.2;;;6.9;;
74644;SDS011;63163;55.630;37.594;2022-09-30T04:39:06;11.8;;;6.3;;
74644;SDS011;63163;55.630;37.594;2022-09-30T04:40:07;13.9;;;6.0;;
74644;SDS011;63163;55.630;37.594;2022-09-30T04:41:10;13.4;;;6.5;;
74644;SDS011;63163;55.630;37.594;2022-09-30T04:42:13;11.7;;;6.5;;
74644;SDS011;63163;55.630;37.594;2022-09-30T04:43:13;9.8;;;6.2;;
74644;SDS011;63163;55.630;37.594;2022-09-30T04:44:15;11.6;;;6.1;;
74644;SDS011;63163;55.630;37.594;2022-09-30T04:45:16;12.3;;;6.2;;
74644;SDS011;63163;55.630;37.594;2022-09-30T04:46:17;9.5;;;6.2;;
74644;SDS011;63163;55.630;37.594;2022-09-30T04:47:18;12.9;;;6.3;;
74644;SDS011;63163;55.630;37.594;2022-09-30T04:48:18;12.5;;;6.5;;
74644;SDS011;63163;55.630;37.594;2022-09-30T04:49:21;12.3;;;5.9;;
74644;SDS011;63163;55.630;37.594;2022-09-30T04:50:22;12.8;;;6.4;;
74644;SDS011;63163;55.630;37.594;2022-09-30T04:51:23;12.2;;;5.8;;
74644;SDS011;63163;55.630;37.594;2022-09-30T04:52:24;12.0;;;6.7;;
74644;SDS011;63163;55.630;37.594;2022-09-30T04:53:24;12.5;;;5.7;;
74644;SDS011;63163;55.630;37.594;2022-09-30T04:54:25;13.7;;;6.5;;
74644;SDS011;63163;55.630;37.594;2022-09-30T04:55:26;12.9;;;6.4;;
74644;SDS011;63163;55.630;37.594;2022-09-30T04:56:26;11.6;;;6.2;;
74644;SDS011;63163;55.630;37.594;2022-09-30T04:57:27;11.7;;;6.5;;
74644;SDS011;63163;55.630;37.594;2022-09-30T04:58:28;11.7;;;6.0;;
74644;SDS011;63163;55.630;37.594;2022-09-30T04:59:28;9.9;;;5.7;;
74644;SDS011;63163;55.630;37.594;2022-09-30T05:00:29;11.8;;;5.7;;
74644;SDS011;63163;55.630;37.594;2022-09-30T05:01:30;12.8;;;6.1;;
74644;SDS011;63163;55.630;37.594;2022-09-30T05:02:30;12.2;;;6.1;;
74644;SDS011;63163;55.630;37.594;2022-09-30T05:03:31;9.4;;;5.9;;
74644;SDS011;63163;55.630;37.594;2022-09-30T05:04:32;15.7;;;8.0;;
74644;SDS011;63163;55.630;37.594;2022-09-30T05:05:32;13.5;;;6.4;;
74644;SDS011;63163;55.630;37.594;2022-09-30T05:06:33;13.6;;;6.8;;
74644;SDS011;63163;55.630;37.594;2022-09-30T05:07:34;14.9;;;6.9;;
74644;SDS011;63163;55.630;37.594;2022-09-30T05:08:35;13.2;;;6.4;;
74644;SDS011;63163;55.630;37.594;2022-09-30T05:09:35;11.4;;;6.4;;
74644;SDS011;63163;55.630;37.594;2022-09-30T05:10:36;12.2;;;6.0;;
74644;SDS011;63163;55.630;37.594;2022-09-30T05:11:37;11.8;;;6.3;;
74644;SDS011;63163;55.630;37.594;2022-09-30T05:12:41;10.5;;;6.1;;
74644;SDS011;63163;55.630;37.594;2022-09-30T05:13:42;10.9;;;5.8;;
74644;SDS011;63163;55.630;37.594;2022-09-30T05:14:43;12.7;;;6.4;;
74644;SDS011;63163;55.630;37.594;2022-09-30T05:15:46;10.5;;;6.1;;
74644;SDS011;63163;55.630;37.594;2022-09-30T05:16:47;12.3;;;6.2;;
74644;SDS011;63163;55.630;37.594;2022-09-30T05:17:48;11.9;;;6.6;;
74644;SDS011;63163;55.630;37.594;2022-09-30T05:18:48;11.6;;;6.0;;
74644;SDS011;63163;55.630;37.594;2022-09-30T05:19:49;12.5;;;6.5;;
74644;SDS011;63163;55.630;37.594;2022-09-30T05:20:50;10.4;;;6.3;;
74644;SDS011;63163;55.630;37.594;2022-09-30T05:21:51;12.0;;;6.5;;
74644;SDS011;63163;55.630;37.594;2022-09-30T05:22:52;11.6;;;6.1;;
74644;SDS011;63163;55.630;37.594;2022-09-30T05:23:53;13.0;;;6.4;;
74644;SDS011;63163;55.630;37.594;2022-09-30T05:24:54;10.4;;;5.9;;
74644;SDS011;63163;55.630;37.594;2022-09-30T05:25:56;12.3;;;5.6;;
74644;SDS011;63163;55.630;37.594;2022-09-30T05:26:56;9.5;;;5.9;;
74644;SDS011;63163;55.630;37.594;2022-09-30T05:27:57;9.5;;;5.6;;
74644;SDS011;63163;55.630;37.594;2022-09-30T05:28:58;15.3;;;6.5;;
74644;SDS011;63163;55.630;37.594;2022-09-30T05:29:58;13.3;;;6.6;;
74644;SDS011;63163;55.630;37.594;2022-09-30T05:30:59;13.8;;;6.7;;
74644;SDS011;63163;55.630;37.594;2022-09-30T05:32:00;11.7;;;6.6;;
74644;SDS011;63163;55.630;37.594;2022-09-30T05:33:01;12.3;;;5.9;;
74644;SDS011;63163;55.630;37.594;2022-09-30T05:34:01;14.3;;;6.4;;
74644;SDS011;63163;55.630;37.594;2022-09-30T05:35:03;11.9;;;6.0;;
74644;SDS011;63163;55.630;37.594;2022-09-30T05:36:05;10.6;;;5.3;;
74644;SDS011;63163;55.630;37.594;2022-09-30T05:37:06;9.2;;;5.6;;
74644;SDS011;63163;55.630;37.594;2022-09-30T05:38:09;12.1;;;5.8;;
74644;SDS011;63163;55.630;37.594;2022-09-30T05:39:09;17.3;;;6.4;;
74644;SDS011;63163;55.630;37.594;2022-09-30T05:40:10;13.9;;;5.7;;
74644;SDS011;63163;55.630;37.594;2022-09-30T05:41:11;11.9;;;6.0;;
74644;SDS011;63163;55.630;37.594;2022-09-30T05:42:12;14.7;;;6.7;;
74644;SDS011;63163;55.630;37.594;2022-09-30T05:43:13;10.7;;;5.5;;
74644;SDS011;63163;55.630;37.594;2022-09-30T05:44:13;11.6;;;5.6;;
74644;SDS011;63163;55.630;37.594;2022-09-30T05:45:14;12.9;;;5.9;;
74644;SDS011;63163;55.630;37.594;2022-09-30T05:46:15;10.3;;;5.8;;
74644;SDS011;63163;55.630;37.594;2022-09-30T05:47:16;10.9;;;5.5;;
74644;SDS011;63163;55.630;37.594;2022-09-30T05:48:17;12.1;;;5.6;;
74644;SDS011;63163;55.630;37.594;2022-09-30T05:49:18;13.9;;;5.9;;
74644;SDS011;63163;55.630;37.594;2022-09-30T05:50:18;11.8;;;6.2;;
74644;SDS011;63163;55.630;37.594;2022-09-30T05:51:19;9.9;;;5.5;;
74644;SDS011;63163;55.630;37.594;2022-09-30T05:52:20;14.5;;;5.9;;
74644;SDS011;63163;55.630;37.594;2022-09-30T05:53:21;12.7;;;6.2;;
74644;SDS011;63163;55.630;37.594;2022-09-30T05:54:21;12.6;;;5.9;;
74644;SDS011;63163;55.630;37.594;2022-09-30T05:55:22;13.7;;;6.3;;
74644;SDS011;63163;55.630;37.594;2022-09-30T05:56:23;12.9;;;6.3;;
74644;SDS011;63163;55.630;37.594;2022-09-30T05:57:23;16.0;;;6.6;;
74644;SDS011;63163;55.630;37.594;2022-09-30T05:58:24;12.1;;;6.3;;
74644;SDS011;63163;55.630;37.594;2022-09-30T05:59:26;10.6;;;5.9;;
74644;SDS011;63163;55.630;37.594;2022-09-30T06:00:27;11.9;;;5.8;;
74644;SDS011;63163;55.630;37.594;2022-09-30T06:01:27;11.3;;;5.7;;
74644;SDS011;63163;55.630;37.594;2022-09-30T06:02:28;15.5;;;6.6;;
74644;SDS011;63163;55.630;37.594;2022-09-30T06:03:28;11.3;;;5.7;;
74644;SDS011;63163;55.630;37.594;2022-09-30T06:04:29;10.0;;;5.6;;
74644;SDS011;63163;55.630;37.594;2022-09-30T06:05:30;13.0;;;6.2;;
74644;SDS011;63163;55.630;37.594;2022-09-30T06:06:31;13.5;;;6.2;;
74644;SDS011;63163;55.630;37.594;2022-09-30T06:07:32;14.3;;;5.9;;
74644;SDS011;63163;55.630;37.594;2022-09-30T06:08:33;11.7;;;5.9;;
74644;SDS011;63163;55.630;37.594;2022-09-30T06:09:33;13.0;;;6.2;;
74644;SDS011;63163;55.630;37.594;2022-09-30T06:10:34;13.6;;;6.8;;
74644;SDS011;63163;55.630;37.594;2022-09-30T06:11:35;11.8;;;6.3;;
74644;SDS011;63163;55.630;37.594;2022-09-30T06:12:36;10.2;;;5.9;;
74644;SDS011;63163;55.630;37.594;2022-09-30T06:13:38;13.1;;;6.0;;
74644;SDS011;63163;55.630;37.594;2022-09-30T06:14:38;12.9;;;5.6;;
74644;SDS011;63163;55.630;37.594;2022-09-30T06:15:39;13.0;;;5.7;;
74644;SDS011;63163;55.630;37.594;2022-09-30T06:16:40;12.4;;;6.2;;
74644;SDS011;63163;55.630;37.594;2022-09-30T06:17:41;11.6;;;6.2;;